Impacts TAF Board
For situational awareness. Not to be used for flight planning purposes.
IDs:

KCNM - Carlsbad/Cavern City, NM, US

Issued at 1720 UTC 08 Aug 2020
Updated at 2059 UTC 08 Aug 2020
Potential Impact None Slight Moderate High
Time2053Z 08/21Z 08/22Z 08/23Z 09/00Z 09/01Z 09/02Z 09/03Z 09/04Z 09/05Z 09/06Z 09/07Z 09/08Z 09/09Z>>
Type OBS PRVL PRVL PRVL PRVL PRVL PRVL PRVL PRVL PRVL PRVL PRVL PRVL PRVL
VIS 10 >6 >6 >6 >6 >6 >6 >6 >6 >6 >6 >6 >6 >6
CIG -- 250 250 250 250 250 250 250 250 250 250 250 250 250
Cover FEW BKN BKN BKN BKN BKN BKN BKN BKN BKN BKN BKN BKN BKN
FltCat VFR VFR VFR VFR VFR VFR VFR VFR VFR VFR VFR VFR VFR VFR
WX -- -- -- -- -- -- -- -- -- -- -- -- -- --
WDir 140 160 160 160 160 160 160 160 160 160 160 160 160 160
WSpd 8 8 8 8 8 8 8 8 8 8 8 8 8 8
WGst 18 -- -- -- -- -- -- -- -- -- -- -- -- --
Raw TAF
KCNM 081720Z 0818/0918 16008KT P6SM SCT100 BKN250

Raw METAR
KCNM 082053Z AUTO 14008G18KT 110V180 10SM FEW100 37/11 A3003 RMK AO2 SLP103 T03670111 56019
KCNM 081953Z AUTO 18007KT 10SM CLR 35/11 A3005 RMK AO2 SLP109 T03500111
KCNM 081853Z AUTO 16007KT 10SM CLR 35/13 A3007 RMK AO2 SLP116 T03500128
KCNM 081753Z AUTO 17007KT 130V200 10SM CLR 33/13 A3009 RMK AO2 SLP124 T03330128 10333 20228 58008

METAR Board
Radar Display
Forecast Discussion
For situational awareness. Not to be used for flight planning purposes.